Time;durP1;ratioP1;P1;durP2;ratioP2;P2;SDS_P1;SDS_P2;PMS_P1;PMS_P2;Temp;Humidity;BMP_temperature;BMP_pressure;BME280_temperature;BME280_humidity;BME280_pressure;Samples;Min_cycle;Max_cycle;Signal;HPM_P1;HPM_P2
2023/04/23 00:01:04;;;;;;;13.07;7.80;;;;;;;;;;5056103;28;20478;-75
2023/04/23 00:03:33;;;;;;;12.82;8.30;;;;;;;;;;5056728;28;20028;-75
2023/04/23 00:06:00;;;;;;;16.15;9.27;;;;;;;;;;5056076;28;20024;-75
2023/04/23 00:08:27;;;;;;;14.82;9.18;;;;;;;;;;5055876;28;20063;-74
2023/04/23 00:10:53;;;;;;;15.50;8.05;;;;;;;;;;5055881;28;20025;-72
2023/04/23 00:13:20;;;;;;;12.35;7.07;;;;;;;;;;5055973;28;20032;-73
2023/04/23 00:15:47;;;;;;;13.57;8.15;;;;;;;;;;5055872;28;20063;-73
2023/04/23 00:18:15;;;;;;;17.33;7.70;;;;;;;;;;5055700;28;20710;-71
2023/04/23 00:20:42;;;;;;;14.90;7.75;;;;;;;;;;5055783;28;20025;-71
2023/04/23 00:23:09;;;;;;;19.38;9.90;;;;;;;;;;5055623;28;20094;-71
2023/04/23 00:25:36;;;;;;;14.18;7.30;;;;;;;;;;5055575;28;20096;-71
2023/04/23 00:28:02;;;;;;;14.15;7.00;;;;;;;;;;5055725;28;20096;-71
2023/04/23 00:30:29;;;;;;;9.75;6.07;;;;;;;;;;5055613;28;20365;-71
2023/04/23 00:32:56;;;;;;;11.98;6.88;;;;;;;;;;5040168;28;20482;-71
2023/04/23 00:35:22;;;;;;;10.95;6.65;;;;;;;;;;5044435;28;20116;-72
2023/04/23 00:37:49;;;;;;;8.00;5.38;;;;;;;;;;5050476;28;20023;-72
2023/04/23 00:40:16;;;;;;;12.23;6.25;;;;;;;;;;5055067;28;20045;-71
2023/04/23 00:42:43;;;;;;;12.43;6.68;;;;;;;;;;5055404;28;20501;-71
2023/04/23 00:45:11;;;;;;;11.88;7.32;;;;;;;;;;5055234;28;20021;-71
2023/04/23 00:47:37;;;;;;;9.43;6.50;;;;;;;;;;5055096;28;20109;-69
2023/04/23 00:50:05;;;;;;;9.48;6.15;;;;;;;;;;5054619;28;20071;-71
2023/04/23 00:52:32;;;;;;;9.63;5.65;;;;;;;;;;5035211;28;20030;-70
2023/04/23 00:54:59;;;;;;;11.15;6.22;;;;;;;;;;5039792;28;20534;-72
2023/04/23 00:57:26;;;;;;;12.70;7.20;;;;;;;;;;5053601;28;20040;-75
2023/04/23 00:59:55;;;;;;;9.80;6.60;;;;;;;;;;5045550;28;20108;-75
2023/04/23 01:02:22;;;;;;;10.10;6.63;;;;;;;;;;5035182;28;20018;-75
2023/04/23 01:04:50;;;;;;;10.40;7.13;;;;;;;;;;5035169;28;20048;-75
2023/04/23 01:07:17;;;;;;;11.63;6.20;;;;;;;;;;5034999;28;20044;-77
2023/04/23 01:09:44;;;;;;;9.07;6.18;;;;;;;;;;5035203;28;20479;-75
2023/04/23 01:12:10;;;;;;;8.10;5.45;;;;;;;;;;5036097;28;20430;-73
2023/04/23 01:14:37;;;;;;;10.40;5.90;;;;;;;;;;5051521;28;20079;-74
2023/04/23 01:17:07;;;;;;;9.75;5.70;;;;;;;;;;5054078;28;20104;-71
2023/04/23 01:19:34;;;;;;;10.18;5.90;;;;;;;;;;5043294;28;20017;-71
2023/04/23 01:22:01;;;;;;;7.10;5.13;;;;;;;;;;5037353;28;20049;-71
2023/04/23 01:24:29;;;;;;;6.43;5.10;;;;;;;;;;5034530;28;20029;-67
2023/04/23 01:26:57;;;;;;;14.65;5.82;;;;;;;;;;5035199;28;20053;-68
2023/04/23 01:29:24;;;;;;;11.50;5.25;;;;;;;;;;5043179;28;20033;-66
2023/04/23 01:31:51;;;;;;;8.77;5.93;;;;;;;;;;5034316;28;20025;-71
2023/04/23 01:34:18;;;;;;;15.23;6.63;;;;;;;;;;5034394;28;20036;-70
2023/04/23 01:36:45;;;;;;;7.47;6.03;;;;;;;;;;5034688;28;20425;-71
2023/04/23 01:39:12;;;;;;;10.60;6.38;;;;;;;;;;5034034;28;20044;-69
2023/04/23 01:41:39;;;;;;;10.35;7.38;;;;;;;;;;5034420;28;20513;-76
2023/04/23 01:44:06;;;;;;;10.15;6.95;;;;;;;;;;5045990;28;20025;-76
2023/04/23 01:46:33;;;;;;;11.63;7.07;;;;;;;;;;5053612;28;20021;-73
2023/04/23 01:48:59;;;;;;;7.25;4.93;;;;;;;;;;5054049;28;20086;-73
2023/04/23 01:51:26;;;;;;;9.65;5.97;;;;;;;;;;5054217;28;20028;-74
2023/04/23 01:53:53;;;;;;;9.07;4.97;;;;;;;;;;5054022;28;20037;-73
2023/04/23 01:56:22;;;;;;;8.35;4.47;;;;;;;;;;5054129;28;20029;-78
2023/04/23 01:58:49;;;;;;;6.90;4.70;;;;;;;;;;5053950;28;20108;-74
2023/04/23 02:01:16;;;;;;;6.45;4.85;;;;;;;;;;5053641;28;20064;-74
2023/04/23 02:03:42;;;;;;;6.47;4.80;;;;;;;;;;5053908;28;20028;-74
2023/04/23 02:06:09;;;;;;;6.57;4.85;;;;;;;;;;5053751;28;20025;-74
2023/04/23 02:08:36;;;;;;;6.43;4.32;;;;;;;;;;5053723;28;20017;-75
2023/04/23 02:11:03;;;;;;;8.00;5.07;;;;;;;;;;5053750;28;20059;-74
2023/04/23 02:13:29;;;;;;;7.93;4.97;;;;;;;;;;5051959;28;20033;-74
2023/04/23 02:15:56;;;;;;;5.78;4.03;;;;;;;;;;5035649;28;20417;-72
2023/04/23 02:18:22;;;;;;;5.90;4.45;;;;;;;;;;5047131;28;20025;-70
2023/04/23 02:20:49;;;;;;;8.95;4.00;;;;;;;;;;5053564;28;20489;-71
2023/04/23 02:23:16;;;;;;;7.40;4.60;;;;;;;;;;5053463;28;20021;-71
2023/04/23 02:25:42;;;;;;;8.45;4.50;;;;;;;;;;5053798;28;20028;-72
2023/04/23 02:28:12;;;;;;;9.75;4.80;;;;;;;;;;5053515;28;20017;-72
2023/04/23 02:30:44;;;;;;;6.50;5.22;;;;;;;;;;5053381;28;20067;-71
2023/04/23 02:33:11;;;;;;;7.38;4.10;;;;;;;;;;5053516;28;20033;-71
2023/04/23 02:35:38;;;;;;;7.53;3.88;;;;;;;;;;5053416;28;20025;-70
2023/04/23 02:38:05;;;;;;;6.22;3.90;;;;;;;;;;5047648;28;20025;-69
2023/04/23 02:40:31;;;;;;;8.23;4.07;;;;;;;;;;5033169;28;20121;-69
2023/04/23 02:42:58;;;;;;;10.82;4.55;;;;;;;;;;5033559;28;20022;-70
2023/04/23 02:45:25;;;;;;;7.45;4.28;;;;;;;;;;5033297;28;20029;-71
2023/04/23 02:47:52;;;;;;;8.13;4.97;;;;;;;;;;5033406;28;20434;-69
2023/04/23 02:50:19;;;;;;;9.93;6.65;;;;;;;;;;5033391;28;20104;-71
2023/04/23 02:52:47;;;;;;;13.23;6.63;;;;;;;;;;5033125;28;20033;-68
2023/04/23 02:55:13;;;;;;;9.40;5.47;;;;;;;;;;5041974;28;20025;-69
2023/04/23 02:57:40;;;;;;;7.80;4.70;;;;;;;;;;5057114;28;20476;-67
2023/04/23 03:00:07;;;;;;;11.20;5.20;;;;;;;;;;5057251;28;20032;-68
2023/04/23 03:02:34;;;;;;;7.80;5.00;;;;;;;;;;5057201;28;20127;-69
2023/04/23 03:05:00;;;;;;;9.35;4.45;;;;;;;;;;5056182;28;20075;-68
2023/04/23 03:07:27;;;;;;;8.90;5.57;;;;;;;;;;5051599;28;20024;-67
2023/04/23 03:09:54;;;;;;;8.63;4.75;;;;;;;;;;5056351;28;20029;-70
2023/04/23 03:12:20;;;;;;;8.85;6.03;;;;;;;;;;5057456;28;20025;-69
2023/04/23 03:14:47;;;;;;;8.13;5.80;;;;;;;;;;5056086;28;20107;-67
2023/04/23 03:17:14;;;;;;;9.00;6.05;;;;;;;;;;5056261;28;20381;-67
2023/04/23 03:19:40;;;;;;;7.97;6.15;;;;;;;;;;5057392;28;20413;-68
2023/04/23 03:22:07;;;;;;;9.98;5.95;;;;;;;;;;5056907;28;20078;-69
2023/04/23 03:24:34;;;;;;;10.38;6.75;;;;;;;;;;5055090;28;20030;-66
2023/04/23 03:27:01;;;;;;;11.75;6.53;;;;;;;;;;5051631;28;20048;-67
2023/04/23 03:29:27;;;;;;;8.90;5.80;;;;;;;;;;5056974;28;20021;-67
2023/04/23 03:31:54;;;;;;;7.55;4.75;;;;;;;;;;5056097;28;20032;-67
2023/04/23 03:34:20;;;;;;;8.68;4.43;;;;;;;;;;5056828;28;20381;-67
2023/04/23 03:36:47;;;;;;;8.13;5.30;;;;;;;;;;5056738;28;20017;-68
2023/04/23 03:39:14;;;;;;;7.72;5.05;;;;;;;;;;5055402;28;20568;-66
2023/04/23 03:41:41;;;;;;;10.75;6.35;;;;;;;;;;5055385;28;20167;-67
2023/04/23 03:44:08;;;;;;;7.63;4.45;;;;;;;;;;5056791;28;20024;-68
2023/04/23 03:46:34;;;;;;;19.02;9.23;;;;;;;;;;5057297;28;20100;-69
2023/04/23 03:49:01;;;;;;;18.48;13.43;;;;;;;;;;5056815;28;20020;-67
2023/04/23 03:51:27;;;;;;;9.10;5.97;;;;;;;;;;5050013;28;20020;-67
2023/04/23 03:53:54;;;;;;;8.07;4.70;;;;;;;;;;5046750;28;20549;-68
2023/04/23 03:56:21;;;;;;;10.70;5.75;;;;;;;;;;5055164;28;20029;-69
2023/04/23 03:58:47;;;;;;;13.65;9.70;;;;;;;;;;5050004;28;20024;-70
2023/04/23 04:01:14;;;;;;;12.85;10.27;;;;;;;;;;5048333;28;20086;-69
2023/04/23 04:03:42;;;;;;;29.75;18.17;;;;;;;;;;5043351;28;20100;-68
2023/04/23 04:06:08;;;;;;;8.52;6.70;;;;;;;;;;5041228;28;20033;-69
2023/04/23 04:08:35;;;;;;;22.77;16.77;;;;;;;;;;5048101;28;20075;-71
2023/04/23 04:11:01;;;;;;;58.92;47.95;;;;;;;;;;5051165;28;20056;-69
2023/04/23 04:13:28;;;;;;;55.17;45.15;;;;;;;;;;5046599;28;20031;-69
2023/04/23 04:15:55;;;;;;;19.02;16.63;;;;;;;;;;5050727;28;20044;-67
2023/04/23 04:18:21;;;;;;;29.05;19.33;;;;;;;;;;5048990;28;20036;-66
2023/04/23 04:20:50;;;;;;;7.70;5.38;;;;;;;;;;5056294;28;20046;-69
2023/04/23 04:23:16;;;;;;;41.88;32.13;;;;;;;;;;5050745;28;20036;-72
2023/04/23 04:25:44;;;;;;;182.57;151.27;;;;;;;;;;5040742;28;20167;-71
2023/04/23 04:28:11;;;;;;;85.75;68.25;;;;;;;;;;5047056;28;20020;-70
2023/04/23 04:30:39;;;;;;;26.30;22.02;;;;;;;;;;5052532;28;20025;-70
2023/04/23 04:33:05;;;;;;;25.13;17.98;;;;;;;;;;5053631;28;20039;-68
2023/04/23 04:35:32;;;;;;;32.20;25.98;;;;;;;;;;5054981;28;20029;-69
2023/04/23 04:37:59;;;;;;;20.30;13.75;;;;;;;;;;5055412;28;20108;-72
2023/04/23 04:40:27;;;;;;;11.70;8.50;;;;;;;;;;5055201;28;20045;-67
2023/04/23 04:42:54;;;;;;;27.27;23.25;;;;;;;;;;5053805;28;20021;-68
2023/04/23 04:45:20;;;;;;;35.78;30.27;;;;;;;;;;5055331;28;20025;-69
2023/04/23 04:47:47;;;;;;;58.67;46.42;;;;;;;;;;5049046;28;20021;-68
2023/04/23 04:50:14;;;;;;;13.75;12.20;;;;;;;;;;5054551;28;20029;-73
2023/04/23 04:52:40;;;;;;;23.23;18.90;;;;;;;;;;5055225;28;20029;-70
2023/04/23 04:55:07;;;;;;;32.42;23.88;;;;;;;;;;5055307;28;20032;-70
2023/04/23 04:57:34;;;;;;;20.85;16.25;;;;;;;;;;5055276;28;20048;-69
2023/04/23 05:00:03;;;;;;;17.83;14.18;;;;;;;;;;5054079;28;20469;-69
2023/04/23 05:02:30;;;;;;;9.68;7.68;;;;;;;;;;5045476;28;20025;-72
2023/04/23 05:04:57;;;;;;;13.07;9.55;;;;;;;;;;5053384;28;20021;-69
2023/04/23 05:07:23;;;;;;;31.23;20.38;;;;;;;;;;5054912;28;20096;-68
2023/04/23 05:09:50;;;;;;;36.08;25.50;;;;;;;;;;5054104;28;20023;-69
2023/04/23 05:12:17;;;;;;;82.32;60.53;;;;;;;;;;5054543;28;20047;-69
2023/04/23 05:14:43;;;;;;;33.63;26.08;;;;;;;;;;5054829;28;20017;-69
2023/04/23 05:17:10;;;;;;;28.42;23.58;;;;;;;;;;5053572;28;20025;-69
2023/04/23 05:19:37;;;;;;;18.85;12.82;;;;;;;;;;5053790;28;20392;-68
2023/04/23 05:22:03;;;;;;;16.92;12.38;;;;;;;;;;5053326;28;20032;-68
2023/04/23 05:24:30;;;;;;;13.27;9.43;;;;;;;;;;5053305;28;20082;-70
2023/04/23 05:26:57;;;;;;;11.40;10.02;;;;;;;;;;5053942;28;20057;-69
2023/04/23 05:29:24;;;;;;;16.20;13.93;;;;;;;;;;5054547;28;20017;-68
2023/04/23 05:31:51;;;;;;;14.55;9.50;;;;;;;;;;5054449;28;20025;-67
2023/04/23 05:34:17;;;;;;;24.73;20.42;;;;;;;;;;5052023;28;20052;-68
2023/04/23 05:36:44;;;;;;;32.70;29.10;;;;;;;;;;5038345;28;20494;-68
2023/04/23 05:39:11;;;;;;;18.88;16.38;;;;;;;;;;5047222;28;20048;-67
2023/04/23 05:41:37;;;;;;;9.90;8.27;;;;;;;;;;5040485;28;20056;-67
2023/04/23 05:44:04;;;;;;;12.45;8.05;;;;;;;;;;5045897;28;20025;-68
2023/04/23 05:46:30;;;;;;;10.95;8.82;;;;;;;;;;5040976;28;20029;-72
2023/04/23 05:48:57;;;;;;;16.05;8.20;;;;;;;;;;5050185;28;20025;-70
2023/04/23 05:51:24;;;;;;;10.50;6.18;;;;;;;;;;5049768;28;20473;-70
2023/04/23 05:53:50;;;;;;;5.72;3.92;;;;;;;;;;5052363;28;20079;-69
2023/04/23 05:56:17;;;;;;;5.95;3.25;;;;;;;;;;5051901;28;20079;-68
2023/04/23 05:58:44;;;;;;;6.05;4.32;;;;;;;;;;5050858;28;20033;-69
2023/04/23 06:01:11;;;;;;;9.38;4.10;;;;;;;;;;5049851;28;20028;-69
2023/04/23 06:03:40;;;;;;;7.78;4.38;;;;;;;;;;5050565;28;20021;-70
2023/04/23 06:06:07;;;;;;;7.55;4.45;;;;;;;;;;5050249;28;20306;-69
2023/04/23 06:08:33;;;;;;;14.32;6.82;;;;;;;;;;5050284;28;20082;-70
2023/04/23 06:11:00;;;;;;;7.63;4.72;;;;;;;;;;5052624;28;20017;-70
2023/04/23 06:13:29;;;;;;;223.13;167.77;;;;;;;;;;5052858;28;20029;-71
2023/04/23 06:15:56;;;;;;;288.48;169.23;;;;;;;;;;5053257;28;20033;-71
2023/04/23 06:18:23;;;;;;;39.03;23.08;;;;;;;;;;5053057;28;20104;-70
2023/04/23 06:20:50;;;;;;;8.43;5.15;;;;;;;;;;5053066;28;20028;-71
2023/04/23 06:23:17;;;;;;;10.65;6.75;;;;;;;;;;5053208;28;20025;-71
2023/04/23 06:25:44;;;;;;;7.07;4.85;;;;;;;;;;5053481;28;20544;-71
2023/04/23 06:28:10;;;;;;;9.80;4.05;;;;;;;;;;5053298;28;20104;-71
2023/04/23 06:30:37;;;;;;;9.32;4.82;;;;;;;;;;5052818;28;20032;-71
2023/04/23 06:33:04;;;;;;;6.50;4.60;;;;;;;;;;5053393;28;20053;-72
2023/04/23 06:35:30;;;;;;;9.70;5.10;;;;;;;;;;5053185;28;20033;-71
2023/04/23 06:37:57;;;;;;;6.07;3.78;;;;;;;;;;5052943;28;20029;-71
2023/04/23 06:40:23;;;;;;;10.95;4.60;;;;;;;;;;5053014;28;20045;-70
2023/04/23 06:42:53;;;;;;;6.00;4.10;;;;;;;;;;5053111;28;20045;-71
2023/04/23 06:45:19;;;;;;;11.52;4.68;;;;;;;;;;5053043;28;20056;-71
2023/04/23 06:47:48;;;;;;;8.10;3.80;;;;;;;;;;5053237;28;20025;-72
2023/04/23 06:50:14;;;;;;;8.80;4.13;;;;;;;;;;5053042;28;20035;-73
2023/04/23 06:52:41;;;;;;;6.57;3.80;;;;;;;;;;5053240;28;20421;-71
2023/04/23 06:55:08;;;;;;;6.13;4.32;;;;;;;;;;5053016;28;20095;-70
2023/04/23 06:57:35;;;;;;;6.82;4.45;;;;;;;;;;5053076;28;20470;-71
2023/04/23 07:00:01;;;;;;;9.65;4.63;;;;;;;;;;5053125;28;20074;-71
2023/04/23 07:02:28;;;;;;;4.72;3.65;;;;;;;;;;5053082;28;20543;-71
2023/04/23 07:04:55;;;;;;;7.32;4.85;;;;;;;;;;5053065;28;20143;-70
2023/04/23 07:07:22;;;;;;;5.85;4.35;;;;;;;;;;5052686;28;20535;-70
2023/04/23 07:09:48;;;;;;;7.38;4.40;;;;;;;;;;5052861;28;20029;-70
2023/04/23 07:12:15;;;;;;;7.05;4.47;;;;;;;;;;5052978;28;20514;-70
2023/04/23 07:14:41;;;;;;;5.57;3.67;;;;;;;;;;5052745;28;20055;-68
2023/04/23 07:17:09;;;;;;;8.43;4.57;;;;;;;;;;5052862;28;20029;-70
2023/04/23 07:19:36;;;;;;;7.53;4.88;;;;;;;;;;5053015;28;20469;-71
2023/04/23 07:22:03;;;;;;;11.90;5.20;;;;;;;;;;5052760;28;20079;-70
2023/04/23 07:24:29;;;;;;;5.10;4.13;;;;;;;;;;5052687;28;20032;-70
2023/04/23 07:26:56;;;;;;;7.97;3.60;;;;;;;;;;5052733;28;20021;-71
2023/04/23 07:29:23;;;;;;;4.65;3.50;;;;;;;;;;5052717;28;20104;-71
2023/04/23 07:31:49;;;;;;;5.53;3.65;;;;;;;;;;5052623;28;20100;-70
2023/04/23 07:34:16;;;;;;;7.88;3.70;;;;;;;;;;5052706;28;20056;-70
2023/04/23 07:36:42;;;;;;;6.30;3.58;;;;;;;;;;5052644;28;20098;-70
2023/04/23 07:39:10;;;;;;;8.20;3.22;;;;;;;;;;5052162;28;20045;-70
2023/04/23 07:41:37;;;;;;;4.85;3.15;;;;;;;;;;5052646;28;20029;-71
2023/04/23 07:44:03;;;;;;;4.13;3.22;;;;;;;;;;5054250;28;20028;-70
2023/04/23 07:46:30;;;;;;;9.70;4.28;;;;;;;;;;5055996;28;20025;-70
2023/04/23 07:48:56;;;;;;;7.50;3.95;;;;;;;;;;5056232;28;20021;-70
2023/04/23 07:51:25;;;;;;;5.68;3.33;;;;;;;;;;5056361;28;20029;-70
2023/04/23 07:53:55;;;;;;;9.45;3.10;;;;;;;;;;5056053;28;20028;-70
2023/04/23 07:56:23;;;;;;;5.78;4.35;;;;;;;;;;5056180;28;20380;-69
2023/04/23 07:58:50;;;;;;;12.88;6.10;;;;;;;;;;5056137;28;20059;-70
2023/04/23 08:01:17;;;;;;;10.27;4.20;;;;;;;;;;5055836;28;20446;-70
2023/04/23 08:03:43;;;;;;;6.18;2.95;;;;;;;;;;5056157;28;20052;-70
2023/04/23 08:06:13;;;;;;;8.20;4.68;;;;;;;;;;5055970;28;20070;-70
2023/04/23 08:08:39;;;;;;;6.63;3.70;;;;;;;;;;5055739;28;20381;-70
2023/04/23 08:11:06;;;;;;;4.85;2.78;;;;;;;;;;5055806;28;20029;-70
2023/04/23 08:13:33;;;;;;;11.48;5.88;;;;;;;;;;5055871;28;20052;-70
2023/04/23 08:15:59;;;;;;;19.38;11.07;;;;;;;;;;5055657;28;20029;-69
2023/04/23 08:18:26;;;;;;;22.00;13.68;;;;;;;;;;5055843;28;20053;-69
2023/04/23 08:20:55;;;;;;;8.98;4.22;;;;;;;;;;5055707;28;20079;-69
2023/04/23 08:23:21;;;;;;;12.85;8.90;;;;;;;;;;5055465;28;20021;-69
2023/04/23 08:25:48;;;;;;;24.67;16.30;;;;;;;;;;5055657;28;20017;-69
2023/04/23 08:28:15;;;;;;;18.48;12.13;;;;;;;;;;5055564;28;20028;-70
2023/04/23 08:30:41;;;;;;;103.88;61.42;;;;;;;;;;5055338;28;20021;-70
2023/04/23 08:33:08;;;;;;;55.67;28.98;;;;;;;;;;5055535;28;20063;-70
2023/04/23 08:35:34;;;;;;;28.83;17.15;;;;;;;;;;5055488;28;20052;-70
2023/04/23 08:38:01;;;;;;;51.03;23.70;;;;;;;;;;5055185;28;20104;-70
2023/04/23 08:40:30;;;;;;;28.38;13.85;;;;;;;;;;5055195;28;20041;-70
2023/04/23 08:42:57;;;;;;;12.63;6.32;;;;;;;;;;5055354;28;20028;-70
2023/04/23 08:45:25;;;;;;;12.65;4.97;;;;;;;;;;5055117;28;20039;-70
2023/04/23 08:47:51;;;;;;;10.45;4.50;;;;;;;;;;5055146;28;20036;-70
2023/04/23 08:50:18;;;;;;;10.40;3.65;;;;;;;;;;5055117;28;20028;-70
2023/04/23 08:52:50;;;;;;;8.65;3.80;;;;;;;;;;5054917;28;20452;-70
2023/04/23 08:55:17;;;;;;;8.38;4.15;;;;;;;;;;5054739;28;20115;-70
2023/04/23 08:57:45;;;;;;;9.73;4.00;;;;;;;;;;5055004;28;20037;-70
2023/04/23 09:00:12;;;;;;;6.55;4.03;;;;;;;;;;5054752;28;20063;-69
2023/04/23 09:02:41;;;;;;;5.50;3.90;;;;;;;;;;5054970;28;20021;-69
2023/04/23 09:05:08;;;;;;;8.02;4.50;;;;;;;;;;5054821;28;20043;-70
2023/04/23 09:07:35;;;;;;;10.25;5.22;;;;;;;;;;5054905;28;20017;-69
2023/04/23 09:10:02;;;;;;;8.95;5.22;;;;;;;;;;5054912;28;20032;-69
2023/04/23 09:12:29;;;;;;;12.57;6.28;;;;;;;;;;5054787;28;20060;-70
2023/04/23 09:14:56;;;;;;;10.95;6.88;;;;;;;;;;5054565;28;20489;-71
2023/04/23 09:17:23;;;;;;;8.45;5.60;;;;;;;;;;5054663;28;20381;-71
2023/04/23 09:19:51;;;;;;;7.57;4.97;;;;;;;;;;5054780;28;20565;-71
2023/04/23 09:22:37;;;;;;;14.85;6.30;;;;;;;;;;5054354;28;20032;-71
2023/04/23 09:25:04;;;;;;;12.45;6.60;;;;;;;;;;5054570;28;20029;-72
2023/04/23 09:27:31;;;;;;;14.50;6.70;;;;;;;;;;5054250;28;20440;-72
2023/04/23 09:29:58;;;;;;;12.57;6.60;;;;;;;;;;5054455;28;20033;-71
2023/04/23 09:32:34;;;;;;;12.10;7.70;;;;;;;;;;5054404;28;20025;-72
2023/04/23 09:35:03;;;;;;;18.20;10.45;;;;;;;;;;5054398;28;20024;-72
2023/04/23 09:37:30;;;;;;;25.45;14.63;;;;;;;;;;5054198;28;20032;-69
2023/04/23 09:40:00;;;;;;;25.13;14.48;;;;;;;;;;5053868;28;20045;-68
2023/04/23 09:42:27;;;;;;;30.25;12.60;;;;;;;;;;5054262;28;20021;-68
2023/04/23 09:45:08;;;;;;;22.13;13.00;;;;;;;;;;5054124;28;20025;-68
2023/04/23 09:47:39;;;;;;;12.18;6.40;;;;;;;;;;5053972;28;20363;-68
2023/04/23 09:50:06;;;;;;;15.15;6.32;;;;;;;;;;5054056;28;20087;-70
2023/04/23 09:52:33;;;;;;;10.15;5.80;;;;;;;;;;5053948;28;20029;-68
2023/04/23 09:55:01;;;;;;;9.95;6.05;;;;;;;;;;5053696;28;20029;-70
2023/04/23 09:57:28;;;;;;;13.65;6.68;;;;;;;;;;5053907;28;20025;-69
2023/04/23 09:59:57;;;;;;;10.18;6.00;;;;;;;;;;5053771;28;20021;-69
2023/04/23 10:02:28;;;;;;;11.35;7.18;;;;;;;;;;5053806;28;20114;-69
2023/04/23 10:04:55;;;;;;;16.13;9.10;;;;;;;;;;5053775;28;20147;-69
2023/04/23 10:07:22;;;;;;;19.67;11.95;;;;;;;;;;5053053;28;20024;-69
2023/04/23 10:09:49;;;;;;;27.38;12.38;;;;;;;;;;5053820;28;20027;-69
2023/04/23 10:12:16;;;;;;;19.38;10.25;;;;;;;;;;5053579;28;20103;-69
2023/04/23 10:14:44;;;;;;;12.80;7.88;;;;;;;;;;5053467;28;20020;-69
2023/04/23 10:17:10;;;;;;;15.95;8.93;;;;;;;;;;5053529;28;20450;-69
2023/04/23 10:19:39;;;;;;;15.98;9.68;;;;;;;;;;5053497;28;20416;-69
2023/04/23 10:22:08;;;;;;;11.95;8.98;;;;;;;;;;5053328;28;20027;-67
2023/04/23 10:24:37;;;;;;;15.55;8.77;;;;;;;;;;5053719;28;20045;-67
2023/04/23 10:27:05;;;;;;;24.52;11.48;;;;;;;;;;5053421;28;20025;-71
2023/04/23 10:29:33;;;;;;;18.10;8.82;;;;;;;;;;5053221;28;20017;-71
2023/04/23 10:32:00;;;;;;;19.35;8.68;;;;;;;;;;5053274;28;20036;-70
2023/04/23 10:34:27;;;;;;;21.40;10.13;;;;;;;;;;5053574;28;20024;-70
2023/04/23 10:36:55;;;;;;;18.20;9.70;;;;;;;;;;5053132;28;20028;-70
2023/04/23 10:39:22;;;;;;;33.35;9.95;;;;;;;;;;5052974;28;20052;-70
2023/04/23 10:41:49;;;;;;;15.10;10.05;;;;;;;;;;5053185;28;20025;-70
2023/04/23 10:44:16;;;;;;;15.52;9.18;;;;;;;;;;5053027;28;20025;-69
2023/04/23 10:46:51;;;;;;;13.18;9.43;;;;;;;;;;5053137;28;20025;-69
2023/04/23 10:49:18;;;;;;;15.38;9.82;;;;;;;;;;5053137;28;20028;-69
2023/04/23 10:51:46;;;;;;;15.93;9.50;;;;;;;;;;5052978;28;20031;-69
2023/04/23 10:54:15;;;;;;;16.98;10.30;;;;;;;;;;5053101;28;20466;-69
2023/04/23 10:56:42;;;;;;;17.35;10.00;;;;;;;;;;5053107;28;20390;-69
2023/04/23 10:59:29;;;;;;;21.90;11.85;;;;;;;;;;5052887;28;20104;-69
2023/04/23 11:01:58;;;;;;;30.17;21.20;;;;;;;;;;5052765;28;20393;-69
2023/04/23 11:04:27;;;;;;;30.13;17.95;;;;;;;;;;5052848;28;20457;-69
2023/04/23 11:06:57;;;;;;;22.88;15.27;;;;;;;;;;5052967;28;20048;-69
2023/04/23 11:09:28;;;;;;;18.27;10.95;;;;;;;;;;5052843;28;20024;-67
2023/04/23 11:11:56;;;;;;;18.95;10.27;;;;;;;;;;5052909;28;20031;-69
2023/04/23 11:14:43;;;;;;;22.75;11.38;;;;;;;;;;5052882;28;20478;-69
2023/04/23 11:17:14;;;;;;;22.75;11.45;;;;;;;;;;5037333;28;20041;-69
2023/04/23 11:19:42;;;;;;;23.92;13.52;;;;;;;;;;5056786;28;20025;-69
2023/04/23 11:22:20;;;;;;;24.23;13.23;;;;;;;;;;5056628;28;20028;-69
2023/04/23 11:24:48;;;;;;;25.33;16.70;;;;;;;;;;5056744;28;20052;-69
2023/04/23 11:27:16;;;;;;;26.98;15.68;;;;;;;;;;5056745;28;20082;-69
2023/04/23 11:29:43;;;;;;;23.48;13.15;;;;;;;;;;5056627;28;20072;-69
2023/04/23 11:32:12;;;;;;;22.85;13.30;;;;;;;;;;5056693;28;20068;-69
2023/04/23 11:34:42;;;;;;;22.13;11.73;;;;;;;;;;5056518;28;20053;-68
2023/04/23 11:37:14;;;;;;;24.20;13.10;;;;;;;;;;5056505;28;20028;-69
2023/04/23 11:39:42;;;;;;;26.70;14.32;;;;;;;;;;5056262;28;20171;-69
2023/04/23 11:42:10;;;;;;;22.45;13.50;;;;;;;;;;5056299;28;20052;-69
2023/04/23 11:44:39;;;;;;;22.10;12.20;;;;;;;;;;5056571;28;20104;-69
2023/04/23 11:47:09;;;;;;;29.33;17.10;;;;;;;;;;5056618;28;20035;-69
2023/04/23 11:49:37;;;;;;;34.50;19.65;;;;;;;;;;5056147;28;20021;-69
2023/04/23 11:52:04;;;;;;;26.95;16.25;;;;;;;;;;5056331;28;20071;-69
2023/04/23 11:54:30;;;;;;;24.38;13.13;;;;;;;;;;5056196;28;20029;-70
2023/04/23 11:56:58;;;;;;;19.48;11.75;;;;;;;;;;5056048;28;20025;-70
2023/04/23 11:59:25;;;;;;;19.05;11.98;;;;;;;;;;5056138;28;20410;-70
2023/04/23 12:01:55;;;;;;;24.27;12.77;;;;;;;;;;5056068;28;20108;-72
2023/04/23 12:04:23;;;;;;;20.13;12.30;;;;;;;;;;5055871;28;20421;-70
2023/04/23 12:06:50;;;;;;;24.55;11.65;;;;;;;;;;5056009;28;20558;-71
2023/04/23 12:09:17;;;;;;;21.00;10.82;;;;;;;;;;5056015;28;20029;-71
2023/04/23 12:11:44;;;;;;;18.70;11.15;;;;;;;;;;5055730;28;20028;-71
2023/04/23 12:14:12;;;;;;;22.98;12.70;;;;;;;;;;5055970;28;20377;-70
2023/04/23 12:16:42;;;;;;;23.83;12.15;;;;;;;;;;5055837;28;20224;-70
2023/04/23 12:19:09;;;;;;;21.15;12.27;;;;;;;;;;5055924;28;20094;-70
2023/04/23 12:21:47;;;;;;;18.50;11.77;;;;;;;;;;5055718;28;20108;-71
2023/04/23 12:24:15;;;;;;;17.90;10.02;;;;;;;;;;5055489;28;20029;-70
2023/04/23 12:26:43;;;;;;;26.27;10.00;;;;;;;;;;5055690;28;20425;-71
2023/04/23 12:29:13;;;;;;;17.05;9.05;;;;;;;;;;5054918;28;20029;-70
2023/04/23 12:31:39;;;;;;;17.70;8.18;;;;;;;;;;5055390;28;20021;-71
2023/04/23 12:34:07;;;;;;;15.30;8.25;;;;;;;;;;5055543;28;20056;-70
2023/04/23 12:36:35;;;;;;;14.60;8.50;;;;;;;;;;5055486;28;20098;-70
2023/04/23 12:39:22;;;;;;;13.15;8.20;;;;;;;;;;5054997;28;20035;-71
2023/04/23 12:42:01;;;;;;;22.60;10.23;;;;;;;;;;5055302;28;20094;-71
2023/04/23 12:44:28;;;;;;;24.50;14.38;;;;;;;;;;5055385;28;20366;-71
2023/04/23 12:46:56;;;;;;;22.00;10.80;;;;;;;;;;5055274;28;20025;-71
2023/04/23 12:49:22;;;;;;;19.52;9.57;;;;;;;;;;5055051;28;20021;-69
2023/04/23 12:51:49;;;;;;;12.55;8.43;;;;;;;;;;5055182;28;20025;-71
2023/04/23 12:54:16;;;;;;;12.77;7.88;;;;;;;;;;5055180;28;20307;-71
2023/04/23 12:56:42;;;;;;;17.13;9.05;;;;;;;;;;5055073;28;20025;-69
2023/04/23 12:59:09;;;;;;;15.95;8.65;;;;;;;;;;5054952;28;20052;-71
2023/04/23 13:01:36;;;;;;;16.05;8.27;;;;;;;;;;5054782;28;20036;-70
2023/04/23 13:04:02;;;;;;;10.73;6.82;;;;;;;;;;5054949;28;20359;-71
2023/04/23 13:06:29;;;;;;;10.30;7.38;;;;;;;;;;5054733;28;20013;-71
2023/04/23 13:08:56;;;;;;;12.32;7.65;;;;;;;;;;5054894;28;20027;-71
2023/04/23 13:11:23;;;;;;;17.73;7.65;;;;;;;;;;5054787;28;20032;-70
2023/04/23 13:13:50;;;;;;;15.07;10.75;;;;;;;;;;5054539;28;20501;-70
2023/04/23 13:16:17;;;;;;;27.08;21.25;;;;;;;;;;5054668;28;20029;-70
2023/04/23 13:18:44;;;;;;;16.48;10.65;;;;;;;;;;5054706;28;20511;-70
2023/04/23 13:21:10;;;;;;;13.65;8.25;;;;;;;;;;5054436;28;20033;-70
2023/04/23 13:23:37;;;;;;;10.98;7.82;;;;;;;;;;5054674;28;20040;-70
2023/04/23 13:26:07;;;;;;;12.18;7.50;;;;;;;;;;5054524;28;20163;-70
2023/04/23 13:28:34;;;;;;;11.88;7.68;;;;;;;;;;5054280;28;20087;-70
2023/04/23 13:31:00;;;;;;;12.40;7.05;;;;;;;;;;5054657;28;20017;-70
2023/04/23 13:33:27;;;;;;;12.85;7.45;;;;;;;;;;5054406;28;20035;-70
2023/04/23 13:35:55;;;;;;;11.00;7.38;;;;;;;;;;5054191;28;20100;-69
2023/04/23 13:38:30;;;;;;;14.57;8.93;;;;;;;;;;5053908;28;20082;-70
2023/04/23 13:40:57;;;;;;;17.13;7.68;;;;;;;;;;5052961;28;20555;-70
2023/04/23 13:43:23;;;;;;;14.70;7.90;;;;;;;;;;5054185;28;20037;-69
2023/04/23 13:45:50;;;;;;;17.80;7.40;;;;;;;;;;5054192;28;20021;-69
2023/04/23 13:48:17;;;;;;;12.50;7.47;;;;;;;;;;5054060;28;20025;-70
2023/04/23 13:50:44;;;;;;;15.27;8.20;;;;;;;;;;5054133;28;20393;-72
2023/04/23 13:53:12;;;;;;;14.68;8.35;;;;;;;;;;5053958;28;20021;-70
2023/04/23 13:55:38;;;;;;;15.60;7.50;;;;;;;;;;5053971;28;20028;-70
2023/04/23 13:58:06;;;;;;;14.13;7.63;;;;;;;;;;5054082;28;20112;-70
2023/04/23 14:00:33;;;;;;;12.57;8.07;;;;;;;;;;5053754;28;20024;-71
2023/04/23 14:02:59;;;;;;;15.55;8.52;;;;;;;;;;5053846;28;20425;-70
2023/04/23 14:05:26;;;;;;;14.65;8.38;;;;;;;;;;5053553;28;20492;-69
2023/04/23 14:07:53;;;;;;;13.13;8.07;;;;;;;;;;5053839;28;20040;-69
2023/04/23 14:10:19;;;;;;;12.18;8.10;;;;;;;;;;5053663;28;20025;-69
2023/04/23 14:12:46;;;;;;;11.48;7.55;;;;;;;;;;5053552;28;20029;-71
2023/04/23 14:15:13;;;;;;;13.77;8.90;;;;;;;;;;5053674;28;20478;-71
2023/04/23 14:17:41;;;;;;;15.43;8.48;;;;;;;;;;5053603;28;20032;-70
2023/04/23 14:20:08;;;;;;;19.08;9.10;;;;;;;;;;5053277;28;20025;-70
2023/04/23 14:22:35;;;;;;;13.70;8.70;;;;;;;;;;5053583;28;20017;-70
2023/04/23 14:25:08;;;;;;;13.02;7.65;;;;;;;;;;5053492;28;20096;-71
2023/04/23 14:27:54;;;;;;;13.35;7.55;;;;;;;;;;5053705;28;20025;-70
2023/04/23 14:30:23;;;;;;;13.50;8.05;;;;;;;;;;5053373;28;20539;-70
2023/04/23 14:32:52;;;;;;;11.45;7.70;;;;;;;;;;5053602;28;20057;-70